Hauptseite
METAR-TAF:

METAR-TAF

Flughäfen :

Belgrad, Serbien

Nikola-Tesla-Flughafen Belgrad

Breite: 44-49N, Länge: 020-17E, Höhe: 96 m

Beobachtung

Neuester Wetterbericht von vor 5 Minuten, um 00:30 UTC
Wind 5 kt aus Süd/Südwest
Temperatur 16°C
Luftfeuchtigkeit 82%
Luftdruck 1016 hPa
Sichtweite 10 km oder mehr
keine Wolken unter 1500 m und keine Kumulonimbus oder Gewitterwolken

METAR: LYBE 250030Z 21005KT CAVOK 16/13 Q1016 NOSIG

Zeit: 02:35 (00:35 UTC)

Prognose

Neuester Wetterbericht von vor 1 Stunde und 35 Minuten, um 23:00 UTC
Gültige Prognose vom 25 um 00 UTC bis 25 um 24 UTC
Wind 6 kt aus Südwest
Sichtweite 10 km oder mehr
keine Wolken unter 1500 m und keine Kumulonimbus oder Gewitterwolken

TAF: LYBE 242300Z 2500/2524 22006KT CAVOK TX28/2513Z TN15/2504Z

Wetterbeobachtungen und Prognosen von mehr als 4000 Flughäfen (METAR und TAF Bericht).

Die verfügbaren Stationen werden durch gelbe und rote Markierungen auf der Karte dargestellt.

Führen Sie die Maus auf sie, um den Namen der Station zu sehen.

Darauf klicken, um die Beobachtung von Wetterbeobachtungen und Prognosen zu sehen.

Um die Karte zu ändern : klicken Sie auf den grünen Tasten mit einem schwarzen Kreuz Zum Vergrößern, auf den grünen Button mit einem Gedankenstrich zu verkleinern, oder auf die grünen Pfeile für benachbarte Karten.


METAR-TAF: